Time;durP1;ratioP1;P1;durP2;ratioP2;P2;SDS_P1;SDS_P2;PMS_P1;PMS_P2;Temp;Humidity;BMP_temperature;BMP_pressure;BME280_temperature;BME280_humidity;BME280_pressure;Samples;Min_cycle;Max_cycle;Signal;HPM_P1;HPM_P2
2021/10/26 00:00:27;;;;;;;6.60;3.60;;;;;;;;;;5125175;28;20946;-78
2021/10/26 00:02:54;;;;;;;5.03;3.43;;;;;;;;;;5109660;28;21350;-79
2021/10/26 00:05:23;;;;;;;2.97;2.73;;;;;;;;;;5103124;28;20451;-79
2021/10/26 00:07:50;;;;;;;2.87;2.67;;;;;;;;;;5101550;28;20442;-79
2021/10/26 00:10:17;;;;;;;4.70;2.83;;;;;;;;;;5118161;28;20488;-80
2021/10/26 00:12:45;;;;;;;3.97;3.60;;;;;;;;;;5131350;27;20461;-79
2021/10/26 00:15:12;;;;;;;3.67;2.80;;;;;;;;;;5125602;27;20454;-81
2021/10/26 00:17:39;;;;;;;3.57;3.27;;;;;;;;;;5113970;28;20458;-80
2021/10/26 00:20:07;;;;;;;3.63;3.10;;;;;;;;;;5101679;28;20502;-81
2021/10/26 00:22:36;;;;;;;5.40;3.47;;;;;;;;;;5105908;27;20438;-80
2021/10/26 00:25:04;;;;;;;4.80;3.90;;;;;;;;;;5111975;28;20450;-81
2021/10/26 00:27:31;;;;;;;3.70;3.10;;;;;;;;;;5128228;27;20961;-81
2021/10/26 00:29:58;;;;;;;4.47;3.33;;;;;;;;;;5128689;27;20603;-82
2021/10/26 00:32:26;;;;;;;5.53;3.53;;;;;;;;;;5132678;27;20459;-79
2021/10/26 00:34:53;;;;;;;5.63;3.40;;;;;;;;;;5110664;28;20434;-79
2021/10/26 00:37:20;;;;;;;5.80;3.97;;;;;;;;;;5100121;27;20454;-79
2021/10/26 00:39:49;;;;;;;3.70;3.33;;;;;;;;;;5097212;28;20462;-79
2021/10/26 00:42:17;;;;;;;4.50;3.73;;;;;;;;;;5093294;28;20445;-80
2021/10/26 00:44:44;;;;;;;3.63;3.10;;;;;;;;;;5116642;27;20476;-81
2021/10/26 00:47:11;;;;;;;5.10;3.50;;;;;;;;;;5133811;27;20437;-81
2021/10/26 00:49:39;;;;;;;5.40;3.30;;;;;;;;;;5118672;27;20485;-81
2021/10/26 00:52:07;;;;;;;4.60;3.70;;;;;;;;;;5101931;28;20479;-80
2021/10/26 00:54:34;;;;;;;3.70;3.40;;;;;;;;;;5106097;28;20482;-79
2021/10/26 00:57:03;;;;;;;3.90;3.40;;;;;;;;;;5107807;27;20925;-80
2021/10/26 00:59:30;;;;;;;3.93;3.57;;;;;;;;;;5130803;27;20457;-79
2021/10/26 01:01:59;;;;;;;5.30;3.67;;;;;;;;;;5122665;27;20462;-81
2021/10/26 01:04:26;;;;;;;4.10;3.73;;;;;;;;;;5109233;27;20554;-80
2021/10/26 01:06:55;;;;;;;4.70;3.43;;;;;;;;;;5118790;27;20548;-81
2021/10/26 01:09:23;;;;;;;4.07;3.67;;;;;;;;;;5129577;27;21014;-79
2021/10/26 01:11:50;;;;;;;4.47;3.40;;;;;;;;;;5131677;27;20479;-79
2021/10/26 01:14:19;;;;;;;5.83;3.10;;;;;;;;;;5104234;27;21039;-82
2021/10/26 01:16:46;;;;;;;4.47;3.73;;;;;;;;;;5104358;28;20813;-81
2021/10/26 01:19:13;;;;;;;3.57;3.10;;;;;;;;;;5118994;27;20540;-82
2021/10/26 01:21:42;;;;;;;4.37;3.33;;;;;;;;;;5133046;27;20444;-79
2021/10/26 01:24:09;;;;;;;5.30;4.27;;;;;;;;;;5129449;27;20476;-81
2021/10/26 01:26:37;;;;;;;6.03;3.77;;;;;;;;;;5127032;27;20463;-80
2021/10/26 01:29:04;;;;;;;4.90;3.63;;;;;;;;;;5114060;27;20477;-82
2021/10/26 01:31:31;;;;;;;5.60;3.50;;;;;;;;;;5135388;27;20473;-79
2021/10/26 01:33:59;;;;;;;7.30;3.47;;;;;;;;;;5131546;27;20460;-80
2021/10/26 01:36:26;;;;;;;5.20;4.33;;;;;;;;;;5103301;27;20925;-82
2021/10/26 01:38:55;;;;;;;4.37;3.93;;;;;;;;;;5098766;28;20439;-81
2021/10/26 01:41:22;;;;;;;4.20;3.63;;;;;;;;;;5098740;27;20476;-79
2021/10/26 01:43:53;;;;;;;6.80;3.70;;;;;;;;;;5131272;27;20470;-81
2021/10/26 01:46:20;;;;;;;4.80;3.70;;;;;;;;;;5133398;27;20445;-81
2021/10/26 01:48:47;;;;;;;4.80;3.83;;;;;;;;;;5109206;27;20461;-81
2021/10/26 01:51:14;;;;;;;7.37;3.37;;;;;;;;;;5093902;27;20477;-80
2021/10/26 01:53:42;;;;;;;3.77;3.10;;;;;;;;;;5103713;27;20851;-81
2021/10/26 01:56:10;;;;;;;6.20;4.17;;;;;;;;;;5111841;28;20529;-80
2021/10/26 01:58:38;;;;;;;4.13;3.70;;;;;;;;;;5116530;27;20544;-81
2021/10/26 02:01:05;;;;;;;4.30;3.60;;;;;;;;;;5120222;27;20453;-80
2021/10/26 02:03:32;;;;;;;4.43;3.13;;;;;;;;;;5108913;27;20827;-81
2021/10/26 02:05:59;;;;;;;6.50;4.20;;;;;;;;;;5109442;28;20431;-80
2021/10/26 02:08:27;;;;;;;3.53;3.23;;;;;;;;;;5098938;28;20451;-81
2021/10/26 02:10:54;;;;;;;3.87;3.40;;;;;;;;;;5108745;28;20480;-82
2021/10/26 02:13:22;;;;;;;4.60;3.93;;;;;;;;;;5110302;27;20483;-81
2021/10/26 02:15:49;;;;;;;4.53;3.80;;;;;;;;;;5130185;27;20941;-81
2021/10/26 02:18:17;;;;;;;4.37;3.63;;;;;;;;;;5132306;27;20438;-79
2021/10/26 02:20:44;;;;;;;5.60;3.70;;;;;;;;;;5113512;27;20462;-81
2021/10/26 02:23:12;;;;;;;4.40;3.80;;;;;;;;;;5100877;28;20476;-79
2021/10/26 02:25:40;;;;;;;7.67;3.47;;;;;;;;;;5097963;27;20443;-81
2021/10/26 02:28:07;;;;;;;5.07;3.70;;;;;;;;;;5130901;27;20438;-79
2021/10/26 02:30:36;;;;;;;4.80;3.73;;;;;;;;;;5131697;27;20456;-81
2021/10/26 02:33:04;;;;;;;3.93;3.53;;;;;;;;;;5128288;27;20481;-80
2021/10/26 02:35:31;;;;;;;4.27;3.77;;;;;;;;;;5118458;27;20455;-82
2021/10/26 02:38:00;;;;;;;4.07;3.67;;;;;;;;;;5097255;28;20461;-81
2021/10/26 02:40:28;;;;;;;5.67;3.80;;;;;;;;;;5106596;28;20477;-80
2021/10/26 02:42:55;;;;;;;8.90;4.20;;;;;;;;;;5111041;28;20472;-80
2021/10/26 02:45:27;;;;;;;4.20;3.77;;;;;;;;;;5116828;27;20540;-78
2021/10/26 02:47:56;;;;;;;5.33;3.73;;;;;;;;;;5130297;27;20498;-81
2021/10/26 02:50:24;;;;;;;5.10;4.00;;;;;;;;;;5118188;27;20484;-84
2021/10/26 02:52:51;;;;;;;5.20;3.87;;;;;;;;;;5100971;28;20836;-80
2021/10/26 02:55:18;;;;;;;4.10;3.70;;;;;;;;;;5102191;28;20489;-79
2021/10/26 02:57:46;;;;;;;5.10;4.10;;;;;;;;;;5131144;27;20707;-83
2021/10/26 03:00:13;;;;;;;6.40;4.10;;;;;;;;;;5131404;27;20441;-82
2021/10/26 03:02:41;;;;;;;6.77;4.27;;;;;;;;;;5118795;27;20469;-78
2021/10/26 03:05:10;;;;;;;6.37;4.03;;;;;;;;;;5121124;27;20453;-82
2021/10/26 03:07:39;;;;;;;6.00;4.10;;;;;;;;;;5110615;27;20856;-80
2021/10/26 03:10:09;;;;;;;3.77;3.40;;;;;;;;;;5123538;27;20453;-79
2021/10/26 03:12:36;;;;;;;5.67;4.30;;;;;;;;;;5106052;27;20481;-78
2021/10/26 03:15:04;;;;;;;4.87;3.90;;;;;;;;;;5101162;28;20470;-81
2021/10/26 03:17:31;;;;;;;6.70;4.33;;;;;;;;;;5101631;28;20453;-80
2021/10/26 03:19:59;;;;;;;6.90;4.87;;;;;;;;;;5110387;28;20442;-80
2021/10/26 03:22:31;;;;;;;3.40;3.10;;;;;;;;;;5109942;28;20503;-81
2021/10/26 03:24:58;;;;;;;5.00;3.73;;;;;;;;;;5131721;27;20961;-79
2021/10/26 03:27:26;;;;;;;6.53;4.10;;;;;;;;;;5128232;28;20458;-80
2021/10/26 03:29:53;;;;;;;7.50;3.90;;;;;;;;;;5109070;28;20458;-80
2021/10/26 03:32:20;;;;;;;4.27;3.87;;;;;;;;;;5131978;28;20473;-81
2021/10/26 03:34:48;;;;;;;5.43;4.17;;;;;;;;;;5133366;28;20548;-81
2021/10/26 03:37:15;;;;;;;4.13;3.73;;;;;;;;;;5099356;28;21018;-81
2021/10/26 03:39:44;;;;;;;7.10;4.03;;;;;;;;;;5099481;28;20803;-81
2021/10/26 03:42:11;;;;;;;4.47;4.07;;;;;;;;;;5099380;28;20477;-79
2021/10/26 03:44:39;;;;;;;7.37;4.40;;;;;;;;;;5130994;28;20828;-78
2021/10/26 03:47:06;;;;;;;4.70;3.63;;;;;;;;;;5131546;27;20446;-80
2021/10/26 03:49:33;;;;;;;5.53;3.53;;;;;;;;;;5108158;27;20505;-80
2021/10/26 03:52:00;;;;;;;5.40;4.17;;;;;;;;;;5134879;27;20487;-79
2021/10/26 03:54:27;;;;;;;5.50;4.63;;;;;;;;;;5108042;27;20519;-82
2021/10/26 03:56:56;;;;;;;4.90;3.73;;;;;;;;;;5103815;27;20908;-78
2021/10/26 03:59:29;;;;;;;5.43;4.03;;;;;;;;;;5093392;28;20975;-82
2021/10/26 04:01:56;;;;;;;7.77;4.63;;;;;;;;;;5123444;27;20461;-81
2021/10/26 04:04:23;;;;;;;6.90;4.70;;;;;;;;;;5130690;27;20560;-79
2021/10/26 04:06:51;;;;;;;4.90;3.93;;;;;;;;;;5132636;27;20437;-80
2021/10/26 04:09:23;;;;;;;6.13;4.10;;;;;;;;;;5108429;27;20677;-81
2021/10/26 04:11:54;;;;;;;6.97;4.43;;;;;;;;;;5101292;27;20490;-79
2021/10/26 04:14:23;;;;;;;4.97;4.13;;;;;;;;;;5121794;27;20489;-81
2021/10/26 04:16:50;;;;;;;6.30;4.10;;;;;;;;;;5131597;27;20461;-81
2021/10/26 04:19:17;;;;;;;5.23;3.80;;;;;;;;;;5135437;27;20444;-81
2021/10/26 04:21:44;;;;;;;6.50;4.43;;;;;;;;;;5126032;27;20884;-79
2021/10/26 04:24:11;;;;;;;6.93;3.90;;;;;;;;;;5118574;27;20481;-81
2021/10/26 04:26:39;;;;;;;9.40;4.57;;;;;;;;;;5101616;28;20820;-83
2021/10/26 04:29:06;;;;;;;9.67;4.20;;;;;;;;;;5114759;27;20453;-80
2021/10/26 04:31:34;;;;;;;7.03;4.13;;;;;;;;;;5133753;27;20433;-82
2021/10/26 04:34:01;;;;;;;5.10;4.60;;;;;;;;;;5131363;27;20469;-80
2021/10/26 04:36:29;;;;;;;6.70;4.03;;;;;;;;;;5134282;27;20798;-80
2021/10/26 04:38:56;;;;;;;5.20;4.77;;;;;;;;;;5120083;27;20451;-81
2021/10/26 04:41:23;;;;;;;5.53;4.40;;;;;;;;;;5105365;27;20465;-81
2021/10/26 04:43:50;;;;;;;8.73;5.00;;;;;;;;;;5104240;28;20840;-81
2021/10/26 04:46:18;;;;;;;7.77;5.27;;;;;;;;;;5107211;27;20460;-81
2021/10/26 04:48:46;;;;;;;4.93;4.43;;;;;;;;;;5133597;27;20514;-81
2021/10/26 04:51:13;;;;;;;11.33;5.13;;;;;;;;;;5131483;27;20450;-81
2021/10/26 04:53:41;;;;;;;7.27;5.13;;;;;;;;;;5133860;27;20481;-83
2021/10/26 04:56:08;;;;;;;5.43;4.57;;;;;;;;;;5106561;27;20844;-80
2021/10/26 04:58:35;;;;;;;11.23;5.20;;;;;;;;;;5104638;28;20446;-80
2021/10/26 05:01:02;;;;;;;6.57;4.20;;;;;;;;;;5112470;28;20981;-78
2021/10/26 05:03:31;;;;;;;5.43;4.43;;;;;;;;;;5116080;27;20473;-77
2021/10/26 05:06:02;;;;;;;6.43;5.10;;;;;;;;;;5134121;27;20918;-79
2021/10/26 05:08:30;;;;;;;6.40;5.30;;;;;;;;;;5123940;27;20457;-79
2021/10/26 05:10:57;;;;;;;5.10;4.60;;;;;;;;;;5117359;27;20454;-78
2021/10/26 05:13:26;;;;;;;8.70;5.27;;;;;;;;;;5102840;28;20827;-77
2021/10/26 05:15:53;;;;;;;8.63;6.03;;;;;;;;;;5108819;27;21035;-81
2021/10/26 05:18:22;;;;;;;5.27;4.37;;;;;;;;;;5118334;27;20484;-78
2021/10/26 05:20:50;;;;;;;7.87;5.27;;;;;;;;;;5107222;27;20847;-79
2021/10/26 05:23:19;;;;;;;7.40;5.30;;;;;;;;;;5092672;28;20466;-79
2021/10/26 05:25:49;;;;;;;7.50;5.67;;;;;;;;;;5103715;28;20535;-80
2021/10/26 05:28:16;;;;;;;10.10;6.30;;;;;;;;;;5130207;27;21005;-79
2021/10/26 05:30:43;;;;;;;8.47;5.87;;;;;;;;;;5135193;27;20441;-79
2021/10/26 05:33:11;;;;;;;5.50;5.00;;;;;;;;;;5119213;27;20482;-80
2021/10/26 05:35:38;;;;;;;6.93;5.50;;;;;;;;;;5102432;28;20443;-78
2021/10/26 05:38:05;;;;;;;8.20;5.70;;;;;;;;;;5107382;27;20458;-80
2021/10/26 05:40:34;;;;;;;7.77;5.60;;;;;;;;;;5133102;27;20433;-82
2021/10/26 05:43:01;;;;;;;9.33;5.83;;;;;;;;;;5128104;27;20485;-80
2021/10/26 05:45:28;;;;;;;9.00;5.00;;;;;;;;;;5126703;27;20454;-79
2021/10/26 05:47:55;;;;;;;7.03;4.77;;;;;;;;;;5123004;27;20473;-81
2021/10/26 05:50:23;;;;;;;5.90;4.67;;;;;;;;;;5109737;27;20447;-81
2021/10/26 05:52:50;;;;;;;5.37;4.23;;;;;;;;;;5129154;27;20526;-80
2021/10/26 05:55:17;;;;;;;6.07;5.17;;;;;;;;;;5125139;27;20484;-79
2021/10/26 05:57:45;;;;;;;7.33;4.20;;;;;;;;;;5099656;28;20455;-82
2021/10/26 06:00:13;;;;;;;5.63;5.03;;;;;;;;;;5095434;28;20476;-81
2021/10/26 06:02:41;;;;;;;7.80;5.70;;;;;;;;;;5094802;27;20447;-78
2021/10/26 06:05:10;;;;;;;5.73;5.13;;;;;;;;;;5121051;27;20454;-80
2021/10/26 06:07:37;;;;;;;7.03;4.30;;;;;;;;;;5129558;27;20476;-79
2021/10/26 06:10:05;;;;;;;4.63;4.13;;;;;;;;;;5120985;27;20453;-82
2021/10/26 06:12:32;;;;;;;6.63;4.90;;;;;;;;;;5102774;27;20487;-79
2021/10/26 06:15:01;;;;;;;5.97;5.20;;;;;;;;;;5101213;27;20456;-79
2021/10/26 06:17:29;;;;;;;5.10;4.50;;;;;;;;;;5109083;28;20450;-83
2021/10/26 06:19:56;;;;;;;5.07;4.40;;;;;;;;;;5106753;27;20867;-80
2021/10/26 06:22:24;;;;;;;6.30;4.77;;;;;;;;;;5116147;27;20454;-80
2021/10/26 06:24:51;;;;;;;9.13;5.10;;;;;;;;;;5125770;27;20437;-79
2021/10/26 06:27:18;;;;;;;6.43;4.90;;;;;;;;;;5105125;28;20521;-80
2021/10/26 06:29:46;;;;;;;7.40;5.80;;;;;;;;;;5101363;27;20906;-81
2021/10/26 06:32:14;;;;;;;6.43;5.10;;;;;;;;;;5110280;28;20482;-77
2021/10/26 06:34:41;;;;;;;5.40;4.90;;;;;;;;;;5116049;27;20838;-79
2021/10/26 06:37:09;;;;;;;6.60;5.60;;;;;;;;;;5131716;27;20592;-82
2021/10/26 06:39:36;;;;;;;7.50;5.47;;;;;;;;;;5128143;27;20500;-79
2021/10/26 06:42:03;;;;;;;7.17;5.60;;;;;;;;;;5116557;27;20548;-79
2021/10/26 06:44:31;;;;;;;6.33;5.53;;;;;;;;;;5103765;28;20442;-80
2021/10/26 06:46:58;;;;;;;7.10;5.47;;;;;;;;;;5101674;28;20463;-81
2021/10/26 06:49:27;;;;;;;9.17;6.00;;;;;;;;;;5110251;28;20959;-79
2021/10/26 06:51:55;;;;;;;7.27;5.90;;;;;;;;;;5106392;27;20918;-80
2021/10/26 06:54:22;;;;;;;8.00;6.20;;;;;;;;;;5105122;27;20521;-78
2021/10/26 06:56:49;;;;;;;16.40;5.47;;;;;;;;;;5111345;27;20481;-79
2021/10/26 06:59:16;;;;;;;6.27;4.60;;;;;;;;;;5105710;28;20466;-79
2021/10/26 07:01:43;;;;;;;13.50;5.30;;;;;;;;;;5094821;28;20455;-78
2021/10/26 07:04:11;;;;;;;7.10;4.57;;;;;;;;;;5093122;28;20455;-79
2021/10/26 07:06:39;;;;;;;7.77;5.20;;;;;;;;;;5107058;28;20449;-78
2021/10/26 07:09:15;;;;;;;6.93;5.87;;;;;;;;;;5091105;27;20447;-80
2021/10/26 07:11:46;;;;;;;10.40;5.60;;;;;;;;;;5110244;28;21011;-79
2021/10/26 07:14:13;;;;;;;10.80;5.60;;;;;;;;;;5112680;28;20485;-81
2021/10/26 07:16:40;;;;;;;6.30;5.47;;;;;;;;;;5099958;28;20554;-79
2021/10/26 07:19:08;;;;;;;6.50;5.80;;;;;;;;;;5106679;28;20923;-79
2021/10/26 07:21:35;;;;;;;8.83;5.37;;;;;;;;;;5107416;28;20530;-82
2021/10/26 07:24:04;;;;;;;7.53;4.93;;;;;;;;;;5107895;27;21015;-82
2021/10/26 07:26:34;;;;;;;10.50;4.90;;;;;;;;;;5114751;27;20927;-80
2021/10/26 07:29:04;;;;;;;5.30;4.40;;;;;;;;;;5114403;28;20458;-81
2021/10/26 07:31:31;;;;;;;6.93;5.17;;;;;;;;;;5107412;28;20787;-82
2021/10/26 07:34:00;;;;;;;5.43;4.90;;;;;;;;;;5100290;28;21026;-80
2021/10/26 07:36:30;;;;;;;10.03;5.30;;;;;;;;;;5090430;28;20455;-83
2021/10/26 07:39:00;;;;;;;7.00;5.27;;;;;;;;;;5093273;28;20455;-82
2021/10/26 07:41:29;;;;;;;4.97;4.47;;;;;;;;;;5114614;28;20449;-84
2021/10/26 07:43:56;;;;;;;5.87;4.73;;;;;;;;;;5131762;28;20507;-80
2021/10/26 07:46:24;;;;;;;5.10;4.23;;;;;;;;;;5107525;28;20473;-82
2021/10/26 07:48:51;;;;;;;7.17;4.90;;;;;;;;;;5102155;28;20525;-85
2021/10/26 07:51:18;;;;;;;12.73;4.43;;;;;;;;;;5107069;28;20443;-80
2021/10/26 07:53:46;;;;;;;9.13;4.10;;;;;;;;;;5130128;28;20473;-84
2021/10/26 07:56:13;;;;;;;7.10;4.20;;;;;;;;;;5131000;28;20805;-80
2021/10/26 07:58:41;;;;;;;10.43;4.40;;;;;;;;;;5110998;28;20461;-80
2021/10/26 08:01:10;;;;;;;5.90;4.13;;;;;;;;;;5106241;28;20461;-83
2021/10/26 08:03:40;;;;;;;7.37;4.67;;;;;;;;;;5100036;28;21026;-80
2021/10/26 08:06:07;;;;;;;7.30;4.40;;;;;;;;;;5119169;28;20481;-83
2021/10/26 08:08:35;;;;;;;9.27;4.40;;;;;;;;;;5131128;28;20779;-85
2021/10/26 08:11:03;;;;;;;7.03;4.40;;;;;;;;;;5128107;28;20449;-81
2021/10/26 08:13:31;;;;;;;6.23;4.20;;;;;;;;;;5128059;28;20480;-81
2021/10/26 08:16:00;;;;;;;6.47;3.80;;;;;;;;;;5105547;28;20894;-82
2021/10/26 08:18:28;;;;;;;5.50;4.27;;;;;;;;;;5107510;28;20799;-78
2021/10/26 08:20:55;;;;;;;8.40;4.50;;;;;;;;;;5123345;28;20450;-79
2021/10/26 08:23:23;;;;;;;7.27;4.20;;;;;;;;;;5121382;28;20862;-85
2021/10/26 08:25:53;;;;;;;10.10;4.30;;;;;;;;;;5100395;28;20459;-82
2021/10/26 08:28:21;;;;;;;7.20;4.50;;;;;;;;;;5106180;28;20817;-82
2021/10/26 08:30:52;;;;;;;7.20;4.80;;;;;;;;;;5098639;28;20455;-82
2021/10/26 08:33:35;;;;;;;5.97;3.70;;;;;;;;;;5092154;28;20478;-82
2021/10/26 08:36:02;;;;;;;4.23;3.10;;;;;;;;;;5123166;27;20453;-82
2021/10/26 08:38:30;;;;;;;4.87;3.03;;;;;;;;;;5107186;27;20462;-79
2021/10/26 08:40:58;;;;;;;10.80;3.80;;;;;;;;;;5111405;27;20578;-80
2021/10/26 08:43:25;;;;;;;4.07;2.80;;;;;;;;;;5112392;27;20478;-80
2021/10/26 08:45:53;;;;;;;4.00;2.60;;;;;;;;;;5111331;28;20789;-82
2021/10/26 08:48:23;;;;;;;5.87;2.40;;;;;;;;;;5100220;28;20451;-80
2021/10/26 08:50:51;;;;;;;6.07;2.60;;;;;;;;;;5109915;28;20522;-81
2021/10/26 08:53:19;;;;;;;4.30;2.57;;;;;;;;;;5109028;27;20503;-79
2021/10/26 08:55:57;;;;;;;4.60;3.07;;;;;;;;;;5110193;28;20444;-80
2021/10/26 08:58:25;;;;;;;2.73;2.23;;;;;;;;;;5109013;28;20472;-78
2021/10/26 09:00:53;;;;;;;3.40;2.70;;;;;;;;;;5103356;27;20494;-78
2021/10/26 09:03:22;;;;;;;5.20;2.53;;;;;;;;;;5100287;28;20541;-79
2021/10/26 09:05:50;;;;;;;4.83;2.50;;;;;;;;;;5100737;28;20452;-79
2021/10/26 09:08:21;;;;;;;4.07;2.43;;;;;;;;;;5112183;27;20450;-79
2021/10/26 09:10:48;;;;;;;4.20;2.50;;;;;;;;;;5110906;28;20450;-79
2021/10/26 09:18:40;;;;;;;3.93;2.67;;;;;;;;;;5098590;27;20527;-79
2021/10/26 09:21:23;;;;;;;4.47;2.60;;;;;;;;;;5101167;27;20456;-80
2021/10/26 09:23:50;;;;;;;7.93;3.40;;;;;;;;;;5112432;28;20461;-79
2021/10/26 09:26:18;;;;;;;6.23;2.90;;;;;;;;;;5108064;27;20496;-79
2021/10/26 09:28:51;;;;;;;4.80;2.90;;;;;;;;;;5106787;27;20956;-78
2021/10/26 09:31:24;;;;;;;5.70;2.80;;;;;;;;;;5105406;27;20465;-79
2021/10/26 09:33:58;;;;;;;4.07;2.50;;;;;;;;;;5099901;27;20876;-79
2021/10/26 09:36:26;;;;;;;5.80;2.63;;;;;;;;;;5104296;28;20431;-79
2021/10/26 09:38:56;;;;;;;6.70;2.80;;;;;;;;;;5107406;27;20543;-78
2021/10/26 09:41:24;;;;;;;5.40;2.93;;;;;;;;;;5117333;27;20465;-79
2021/10/26 09:43:51;;;;;;;5.60;2.77;;;;;;;;;;5122816;27;20544;-80
2021/10/26 09:46:24;;;;;;;9.00;2.87;;;;;;;;;;5113532;27;20560;-79
2021/10/26 09:48:53;;;;;;;7.07;3.00;;;;;;;;;;5105753;28;20451;-78
2021/10/26 09:51:21;;;;;;;3.73;2.73;;;;;;;;;;5098482;28;20462;-78
2021/10/26 09:53:56;;;;;;;3.93;2.20;;;;;;;;;;5090876;28;20482;-79
2021/10/26 09:56:23;;;;;;;3.23;2.30;;;;;;;;;;5097056;28;20468;-79
2021/10/26 09:58:52;;;;;;;6.10;2.23;;;;;;;;;;5124853;27;20457;-78
2021/10/26 10:01:26;;;;;;;4.33;2.40;;;;;;;;;;5126825;27;20581;-80
2021/10/26 10:04:06;;;;;;;7.03;2.33;;;;;;;;;;5108599;27;20489;-78
2021/10/26 10:06:47;;;;;;;2.80;2.10;;;;;;;;;;5100496;28;20464;-80
2021/10/26 10:09:20;;;;;;;4.40;2.40;;;;;;;;;;5107425;28;20985;-78
2021/10/26 10:11:58;;;;;;;4.07;2.33;;;;;;;;;;5109288;27;20464;-78
2021/10/26 10:14:25;;;;;;;5.33;2.07;;;;;;;;;;5132673;27;20488;-78
2021/10/26 10:16:53;;;;;;;6.47;2.50;;;;;;;;;;5109750;28;20458;-77
2021/10/26 10:19:22;;;;;;;5.80;2.03;;;;;;;;;;5106359;27;20461;-78
2021/10/26 10:21:51;;;;;;;4.30;2.93;;;;;;;;;;5112991;27;20462;-78
2021/10/26 10:24:19;;;;;;;3.70;2.17;;;;;;;;;;5117996;27;20486;-77
2021/10/26 10:26:49;;;;;;;4.10;2.40;;;;;;;;;;5111783;27;20459;-77
2021/10/26 10:29:17;;;;;;;5.40;2.07;;;;;;;;;;5099167;27;20454;-78
2021/10/26 10:31:45;;;;;;;5.60;2.00;;;;;;;;;;5106121;27;20458;-77
2021/10/26 10:34:13;;;;;;;3.97;2.20;;;;;;;;;;5105081;27;20496;-78
2021/10/26 10:36:42;;;;;;;3.30;2.17;;;;;;;;;;5128266;27;20454;-78
2021/10/26 10:39:10;;;;;;;3.37;2.13;;;;;;;;;;5110208;28;20957;-78
2021/10/26 10:41:40;;;;;;;6.70;1.80;;;;;;;;;;5105686;27;20990;-79
2021/10/26 10:44:28;;;;;;;5.50;2.20;;;;;;;;;;5128534;27;20541;-78
2021/10/26 10:46:59;;;;;;;3.73;2.30;;;;;;;;;;5120565;27;20815;-77
2021/10/26 10:49:41;;;;;;;2.27;1.47;;;;;;;;;;5106723;27;20447;-78
2021/10/26 10:52:13;;;;;;;5.73;2.20;;;;;;;;;;5098940;28;20445;-78
2021/10/26 10:54:41;;;;;;;5.73;2.87;;;;;;;;;;5104670;28;20478;-78
2021/10/26 10:57:17;;;;;;;9.23;3.20;;;;;;;;;;5116769;27;20822;-78
2021/10/26 10:59:45;;;;;;;3.87;2.20;;;;;;;;;;5131568;27;20433;-78
2021/10/26 11:02:22;;;;;;;3.63;1.50;;;;;;;;;;5115309;27;20985;-79
2021/10/26 11:04:50;;;;;;;5.80;3.13;;;;;;;;;;5106512;27;20459;-79
2021/10/26 11:07:39;;;;;;;7.90;2.53;;;;;;;;;;5098262;28;20440;-79
2021/10/26 11:10:07;;;;;;;5.23;2.60;;;;;;;;;;5118803;27;20465;-79
2021/10/26 11:12:36;;;;;;;3.37;2.00;;;;;;;;;;5104942;27;20439;-80
2021/10/26 11:15:05;;;;;;;4.40;1.77;;;;;;;;;;5093269;27;20482;-79
2021/10/26 11:17:49;;;;;;;4.00;1.77;;;;;;;;;;5124826;27;20971;-79
2021/10/26 11:20:41;;;;;;;8.77;2.17;;;;;;;;;;5108514;27;20979;-79
2021/10/26 11:23:11;;;;;;;3.00;1.73;;;;;;;;;;5096643;28;20794;-78
2021/10/26 11:25:39;;;;;;;3.00;2.13;;;;;;;;;;5099272;28;20448;-78
2021/10/26 11:28:24;;;;;;;4.23;2.00;;;;;;;;;;5094850;27;20775;-78
2021/10/26 11:30:52;;;;;;;2.63;1.80;;;;;;;;;;5098291;28;20464;-78
2021/10/26 11:33:37;;;;;;;2.10;1.90;;;;;;;;;;5114738;28;20566;-78
2021/10/26 11:36:05;;;;;;;3.20;1.70;;;;;;;;;;5097985;28;20887;-78
2021/10/26 11:38:35;;;;;;;4.23;1.90;;;;;;;;;;5092564;28;21036;-79
2021/10/26 11:41:03;;;;;;;3.50;1.80;;;;;;;;;;5096168;28;20473;-79
2021/10/26 11:43:31;;;;;;;3.93;2.00;;;;;;;;;;5121205;28;20441;-82
2021/10/26 11:45:58;;;;;;;2.90;1.47;;;;;;;;;;5113725;28;20422;-79
2021/10/26 11:48:40;;;;;;;4.70;1.80;;;;;;;;;;5103709;28;20454;-80
2021/10/26 11:51:22;;;;;;;3.90;1.80;;;;;;;;;;5099537;28;20446;-79
2021/10/26 11:53:51;;;;;;;3.40;2.07;;;;;;;;;;5096183;28;21206;-79
2021/10/26 11:56:20;;;;;;;3.60;1.87;;;;;;;;;;5100768;28;20674;-78
2021/10/26 11:58:54;;;;;;;3.70;1.77;;;;;;;;;;5099844;28;20457;-79
2021/10/26 12:01:23;;;;;;;2.33;1.63;;;;;;;;;;5099125;28;20433;-78
2021/10/26 12:03:50;;;;;;;2.90;1.70;;;;;;;;;;5101075;28;20515;-79
2021/10/26 12:06:29;;;;;;;3.07;2.00;;;;;;;;;;5091690;28;20454;-77
2021/10/26 12:08:59;;;;;;;2.50;1.63;;;;;;;;;;5092867;28;20425;-78
2021/10/26 12:11:28;;;;;;;4.13;2.20;;;;;;;;;;5102098;28;20815;-76
2021/10/26 12:14:10;;;;;;;3.17;1.80;;;;;;;;;;5088541;28;20435;-78
2021/10/26 12:16:37;;;;;;;3.20;1.90;;;;;;;;;;5095408;28;20429;-78
2021/10/26 12:19:04;;;;;;;2.33;1.50;;;;;;;;;;5102257;27;20429;-77
2021/10/26 12:21:32;;;;;;;4.20;1.77;;;;;;;;;;5109951;27;20439;-76
2021/10/26 12:24:00;;;;;;;4.87;1.90;;;;;;;;;;5114214;27;20486;-78
2021/10/26 12:26:27;;;;;;;3.23;1.70;;;;;;;;;;5130252;27;20789;-79
2021/10/26 12:28:55;;;;;;;6.00;1.80;;;;;;;;;;5103029;27;20435;-79
2021/10/26 12:31:25;;;;;;;4.00;1.80;;;;;;;;;;5104607;27;20836;-80
2021/10/26 12:34:00;;;;;;;1.73;1.53;;;;;;;;;;5107535;27;20501;-79
2021/10/26 12:36:28;;;;;;;2.53;1.53;;;;;;;;;;5124179;27;20904;-79
2021/10/26 12:39:04;;;;;;;6.80;1.43;;;;;;;;;;5106463;27;20428;-79
2021/10/26 12:41:38;;;;;;;5.83;1.90;;;;;;;;;;5115279;27;20432;-80
2021/10/26 12:44:06;;;;;;;4.40;2.07;;;;;;;;;;5101321;28;20530;-78
2021/10/26 12:46:33;;;;;;;7.87;2.30;;;;;;;;;;5111663;27;21099;-78
2021/10/26 12:49:08;;;;;;;4.90;2.30;;;;;;;;;;5103852;28;20410;-77
2021/10/26 12:51:37;;;;;;;7.93;2.03;;;;;;;;;;5103759;28;20513;-78
2021/10/26 12:54:13;;;;;;;2.73;1.63;;;;;;;;;;5101595;27;21456;-77
2021/10/26 12:56:46;;;;;;;4.63;2.13;;;;;;;;;;5096034;28;20938;-77
2021/10/26 12:59:16;;;;;;;4.17;2.70;;;;;;;;;;5110204;27;20438;-78
2021/10/26 13:01:46;;;;;;;5.33;2.60;;;;;;;;;;5125660;27;20469;-77
2021/10/26 13:04:21;;;;;;;9.00;2.20;;;;;;;;;;5126650;27;20512;-77
2021/10/26 13:06:49;;;;;;;4.87;1.90;;;;;;;;;;5130610;27;20484;-77
2021/10/26 13:09:30;;;;;;;4.13;1.70;;;;;;;;;;5102641;28;20438;-79
2021/10/26 13:12:06;;;;;;;5.13;1.63;;;;;;;;;;5101879;27;20879;-77
2021/10/26 13:14:39;;;;;;;2.63;1.53;;;;;;;;;;5112739;27;20485;-79
2021/10/26 13:17:22;;;;;;;1.40;1.27;;;;;;;;;;5114384;27;20546;-78
2021/10/26 13:19:50;;;;;;;4.80;1.73;;;;;;;;;;5123696;27;20422;-77
2021/10/26 13:22:17;;;;;;;3.33;1.60;;;;;;;;;;5106317;28;20544;-76
2021/10/26 13:24:46;;;;;;;5.27;1.40;;;;;;;;;;5098219;28;20457;-79
2021/10/26 13:27:13;;;;;;;2.20;1.47;;;;;;;;;;5107373;28;20512;-79
2021/10/26 13:29:41;;;;;;;2.70;1.93;;;;;;;;;;5109761;27;20503;-77
2021/10/26 13:32:11;;;;;;;2.50;1.53;;;;;;;;;;5133369;27;20453;-78
2021/10/26 13:34:38;;;;;;;2.20;1.50;;;;;;;;;;5116311;27;20491;-78
2021/10/26 13:37:05;;;;;;;2.93;1.63;;;;;;;;;;5102225;27;20922;-77
2021/10/26 13:39:32;;;;;;;3.30;1.60;;;;;;;;;;5102064;28;20426;-79
2021/10/26 13:42:01;;;;;;;3.27;1.60;;;;;;;;;;5107372;28;20438;-78
2021/10/26 13:44:28;;;;;;;3.30;1.50;;;;;;;;;;5113970;27;20445;-77
2021/10/26 13:46:55;;;;;;;2.60;1.40;;;;;;;;;;5131711;27;20411;-78
2021/10/26 13:49:23;;;;;;;3.20;1.63;;;;;;;;;;5110806;27;20409;-79
2021/10/26 13:51:50;;;;;;;2.70;1.73;;;;;;;;;;5108381;27;20814;-78
2021/10/26 13:54:18;;;;;;;6.20;1.60;;;;;;;;;;5097110;28;20476;-78
2021/10/26 13:56:47;;;;;;;3.80;2.10;;;;;;;;;;5124317;27;20456;-77
2021/10/26 13:59:16;;;;;;;3.00;1.50;;;;;;;;;;5118463;27;20439;-77
2021/10/26 14:01:44;;;;;;;4.27;1.70;;;;;;;;;;5117487;27;20428;-79
2021/10/26 14:04:12;;;;;;;4.63;2.30;;;;;;;;;;5119680;27;20498;-79
2021/10/26 14:06:39;;;;;;;2.67;1.80;;;;;;;;;;5104695;28;20489;-79
2021/10/26 14:09:07;;;;;;;3.50;1.70;;;;;;;;;;5101530;28;20416;-78
2021/10/26 14:11:35;;;;;;;3.00;1.97;;;;;;;;;;5109021;28;20798;-77
2021/10/26 14:14:02;;;;;;;5.93;2.10;;;;;;;;;;5109443;28;21246;-77
2021/10/26 14:16:31;;;;;;;4.43;1.60;;;;;;;;;;5111618;28;20441;-78
2021/10/26 14:18:58;;;;;;;3.90;1.77;;;;;;;;;;5122708;27;20460;-78
2021/10/26 14:21:28;;;;;;;3.60;1.80;;;;;;;;;;5117826;27;20434;-78
2021/10/26 14:23:56;;;;;;;4.03;1.93;;;;;;;;;;5101854;27;20452;-78
2021/10/26 14:26:23;;;;;;;4.83;1.87;;;;;;;;;;5131468;27;20461;-79
2021/10/26 14:28:50;;;;;;;3.50;1.70;;;;;;;;;;5120124;27;22458;-78
2021/10/26 14:34:00;;;;;;;4.10;2.00;;;;;;;;;;5110451;27;20815;-78
2021/10/26 14:36:39;;;;;;;2.97;2.00;;;;;;;;;;5108224;27;20516;-79
2021/10/26 14:39:10;;;;;;;4.87;2.23;;;;;;;;;;5129162;27;20450;-78
2021/10/26 14:55:11;;;;;;;3.07;1.80;;;;;;;;;;5102142;28;20480;-81
2021/10/26 14:57:38;;;;;;;8.50;1.73;;;;;;;;;;5109360;28;20442;-79
2021/10/26 15:00:06;;;;;;;4.53;1.80;;;;;;;;;;5130929;27;20473;-80
2021/10/26 15:02:33;;;;;;;2.00;1.43;;;;;;;;;;5132817;27;20787;-82
2021/10/26 15:05:02;;;;;;;7.00;2.23;;;;;;;;;;5110896;27;20504;-78
2021/10/26 15:07:30;;;;;;;6.70;2.27;;;;;;;;;;5106965;28;20417;-81
2021/10/26 15:12:57;;;;;;;6.00;3.37;;;;;;;;;;5095743;28;21175;-78
2021/10/26 15:15:24;;;;;;;5.60;2.60;;;;;;;;;;5109961;27;20477;-82
2021/10/26 15:17:52;;;;;;;7.43;3.27;;;;;;;;;;5118079;27;20454;-79